createdAt,value
2018-05-13T03:01:00.504Z,0.00
2018-05-13T03:02:00.654Z,0.00
2018-05-13T03:03:00.816Z,0.00
2018-05-13T03:04:00.972Z,0.00
2018-05-13T03:05:01.178Z,0.00
2018-05-13T03:06:01.308Z,0.00
2018-05-13T03:07:01.472Z,0.00
2018-05-13T03:08:01.627Z,0.00
2018-05-13T03:09:01.802Z,0.00
2018-05-13T03:10:01.973Z,0.00
2018-05-13T03:11:02.141Z,0.00
2018-05-13T03:12:02.311Z,0.00
2018-05-13T03:13:02.466Z,0.00
2018-05-13T03:14:02.641Z,0.00
2018-05-13T03:15:03.490Z,0.00
2018-05-13T03:16:03.017Z,0.00
2018-05-13T03:17:03.984Z,0.00
2018-05-13T03:18:03.387Z,0.00
2018-05-13T03:19:03.612Z,0.00
2018-05-13T03:21:35.804Z,0.00
2018-05-13T03:22:35.961Z,0.00
2018-05-13T03:23:36.119Z,5.63
2018-05-13T03:24:36.329Z,5.63
2018-05-13T03:25:36.471Z,5.63
2018-05-13T03:26:36.613Z,5.63
2018-05-13T03:27:36.774Z,5.63
2018-05-13T03:28:36.920Z,5.63
2018-05-13T03:29:37.849Z,11.25
2018-05-13T03:30:37.258Z,11.25
2018-05-13T03:31:37.431Z,11.25
2018-05-13T03:32:37.575Z,11.25
2018-05-13T03:33:37.731Z,11.25
2018-05-13T03:34:37.895Z,11.25
2018-05-13T03:35:38.892Z,11.25
2018-05-13T03:36:38.307Z,16.88
2018-05-13T03:37:38.448Z,16.88
2018-05-13T03:38:38.648Z,16.88
2018-05-13T03:39:38.827Z,16.88
2018-05-13T03:40:38.970Z,16.88
2018-05-13T03:41:39.149Z,22.50
2018-05-13T03:42:39.334Z,22.50
2018-05-13T03:43:39.457Z,22.50
2018-05-13T03:44:39.600Z,22.50
2018-05-13T03:45:39.780Z,28.13
2018-05-13T03:46:39.952Z,28.13
2018-05-13T03:47:40.130Z,28.13
2018-05-13T03:48:40.249Z,33.75
2018-05-13T03:49:40.451Z,33.75
2018-05-13T03:50:41.374Z,33.75
2018-05-13T03:51:40.780Z,39.38
2018-05-13T03:52:40.922Z,39.38
2018-05-13T03:53:41.857Z,45.00
2018-05-13T03:54:41.304Z,45.00
2018-05-13T03:55:42.360Z,45.00
2018-05-13T03:56:41.569Z,50.63
2018-05-13T03:57:41.737Z,50.63
2018-05-13T03:58:41.925Z,50.63
2018-05-13T03:59:42.051Z,56.25
2018-05-13T04:00:42.284Z,56.25
2018-05-13T04:04:47.593Z,67.50
2018-05-13T04:05:47.621Z,67.50
2018-05-13T04:06:47.789Z,67.50
2018-05-13T04:08:08.949Z,73.13
2018-05-13T04:08:48.091Z,73.13
2018-05-13T04:09:48.274Z,73.13
2018-05-13T04:11:03.093Z,78.75
2018-05-13T04:11:48.582Z,78.75
2018-05-13T04:12:48.775Z,78.75
2018-05-13T04:13:48.919Z,84.38
2018-05-13T04:14:49.583Z,84.38
2018-05-13T04:15:49.276Z,84.38
2018-05-13T04:16:49.383Z,84.38
2018-05-13T04:17:49.583Z,90.00
2018-05-13T04:18:50.589Z,90.00
2018-05-13T04:19:49.886Z,90.00
2018-05-13T04:20:50.048Z,90.00
2018-05-13T04:21:50.234Z,95.63
2018-05-13T04:22:51.107Z,95.63
2018-05-13T04:23:50.483Z,95.63
2018-05-13T04:24:50.662Z,95.63
2018-05-13T04:25:50.809Z,101.25
2018-05-13T04:26:50.963Z,101.25
2018-05-13T04:27:51.096Z,101.25
2018-05-13T04:28:52.078Z,106.88
2018-05-13T04:29:51.489Z,106.88
2018-05-13T04:30:51.694Z,106.88
2018-05-13T04:31:51.815Z,106.88
2018-05-13T04:32:52.001Z,112.50
2018-05-13T04:33:52.154Z,112.50
2018-05-13T04:34:52.337Z,112.50
2018-05-13T04:35:52.520Z,112.50
2018-05-13T04:36:52.665Z,118.13
2018-05-13T04:37:52.857Z,118.13
2018-05-13T04:38:53.000Z,118.13
2018-05-13T04:39:53.159Z,123.75
2018-05-13T04:40:53.327Z,123.75
2018-05-13T04:41:53.457Z,123.75
2018-05-13T04:42:53.659Z,129.38
2018-05-13T04:45:25.884Z,129.38
2018-05-13T04:46:26.059Z,135.00
2018-05-13T04:47:26.228Z,135.00
2018-05-13T04:48:26.389Z,140.63
2018-05-13T04:49:26.545Z,140.63
2018-05-13T04:50:26.715Z,140.63
2018-05-13T04:51:26.883Z,146.25
2018-05-13T04:52:27.024Z,146.25
2018-05-13T04:53:27.205Z,146.25
2018-05-13T04:54:27.950Z,151.88
2018-05-13T04:55:27.484Z,151.88
2018-05-13T04:56:27.634Z,157.50
2018-05-13T04:57:27.797Z,157.50
2018-05-13T04:58:27.953Z,163.13
2018-05-13T04:59:28.131Z,163.13
2018-05-13T05:00:28.302Z,168.75
2018-05-13T05:01:28.497Z,168.75
2018-05-13T05:02:28.618Z,168.75
2018-05-13T05:03:29.443Z,168.75
2018-05-13T05:04:28.997Z,174.38
2018-05-13T05:05:29.168Z,174.38
2018-05-13T05:06:29.340Z,180.00
2018-05-13T05:07:29.482Z,185.63
2018-05-13T05:08:29.657Z,185.63
2018-05-13T05:09:29.851Z,191.25
2018-05-13T05:10:30.954Z,202.50
2018-05-13T05:11:30.142Z,196.88
2018-05-13T05:12:30.295Z,202.50
2018-05-13T05:13:31.486Z,202.50
2018-05-13T05:14:30.650Z,208.13
2018-05-13T05:15:31.438Z,208.13
2018-05-13T05:16:31.048Z,213.75
2018-05-13T05:17:31.163Z,219.38
2018-05-13T05:18:31.333Z,219.38
2018-05-13T05:19:31.454Z,225.00
2018-05-13T05:20:52.667Z,230.63
2018-05-13T05:21:31.798Z,236.25
2018-05-13T05:22:31.958Z,241.88
2018-05-13T05:23:32.137Z,241.88
2018-05-13T05:24:32.260Z,247.50
2018-05-13T05:25:32.429Z,253.13
2018-05-13T05:26:32.656Z,258.75
2018-05-13T05:27:32.803Z,258.75
2018-05-13T05:28:32.929Z,264.38
2018-05-13T05:29:33.131Z,270.00
2018-05-13T05:30:33.283Z,275.63
2018-05-13T05:31:33.443Z,281.25
2018-05-13T05:32:33.588Z,281.25
2018-05-13T05:33:33.789Z,286.88
2018-05-13T05:34:34.450Z,292.50
2018-05-13T05:35:34.141Z,298.13
2018-05-13T05:36:34.274Z,298.13
2018-05-13T05:37:34.452Z,303.75
2018-05-13T05:38:34.629Z,303.75
2018-05-13T05:39:34.815Z,309.38
2018-05-13T05:40:34.934Z,315.00
2018-05-13T05:41:35.097Z,315.00
2018-05-13T05:42:35.256Z,320.63
2018-05-13T05:43:35.474Z,326.25
2018-05-13T05:44:35.632Z,331.88
2018-05-13T05:45:35.765Z,337.50
2018-05-13T05:46:35.953Z,343.13
2018-05-13T05:47:36.947Z,343.13
2018-05-13T05:48:36.250Z,348.75
2018-05-13T05:49:36.406Z,348.75
2018-05-13T05:50:36.604Z,354.38
2018-05-13T05:51:36.805Z,360.00
2018-05-13T05:52:36.954Z,365.63
2018-05-13T05:53:37.096Z,365.63
2018-05-13T05:54:37.298Z,376.88
2018-05-13T05:55:37.475Z,388.13
2018-05-13T05:56:39.499Z,393.75
2018-05-13T05:57:37.774Z,399.38
2018-05-13T05:58:37.930Z,405.00
2018-05-13T06:01:10.167Z,421.88
2018-05-13T06:02:10.339Z,421.88
2018-05-13T06:03:10.503Z,427.50
2018-05-13T06:04:10.644Z,433.13
2018-05-13T06:05:12.040Z,438.75
2018-05-13T06:06:11.089Z,438.75
2018-05-13T06:07:11.250Z,399.38
2018-05-13T06:08:11.365Z,444.38
2018-05-13T06:09:11.558Z,455.63
2018-05-13T06:10:11.727Z,466.88
2018-05-13T06:11:11.846Z,466.88
2018-05-13T06:12:12.006Z,472.50
2018-05-13T06:13:12.160Z,472.50
2018-05-13T06:14:12.342Z,478.13
2018-05-13T06:15:12.554Z,478.13
2018-05-13T06:16:13.251Z,478.13
2018-05-13T06:17:12.888Z,478.13
2018-05-13T06:18:13.059Z,478.13
2018-05-13T06:19:13.228Z,478.13
2018-05-13T06:20:13.408Z,478.13
2018-05-13T06:21:13.584Z,472.50
2018-05-13T06:22:13.719Z,478.13
2018-05-13T06:23:13.899Z,478.13
2018-05-13T06:24:14.042Z,478.13
2018-05-13T06:25:14.262Z,472.50
2018-05-13T06:26:14.400Z,478.13
2018-05-13T06:27:14.525Z,483.75
2018-05-13T06:28:14.683Z,483.75
2018-05-13T06:29:14.871Z,483.75
2018-05-13T06:30:15.069Z,478.13
2018-05-13T06:31:15.187Z,478.13
2018-05-13T06:32:15.335Z,478.13
2018-05-13T06:33:15.500Z,472.50
2018-05-13T06:34:15.715Z,472.50
2018-05-13T06:35:15.826Z,461.25
2018-05-13T06:36:16.036Z,466.88
2018-05-13T06:37:16.170Z,461.25
2018-05-13T06:38:16.383Z,450.00
2018-05-13T06:39:18.261Z,450.00
2018-05-13T06:40:16.649Z,450.00
2018-05-13T06:41:16.827Z,444.38
2018-05-13T06:42:18.757Z,450.00
2018-05-13T06:46:21.296Z,433.13
2018-05-13T06:47:21.453Z,427.50
2018-05-13T06:48:21.647Z,433.13
2018-05-13T06:49:21.869Z,427.50
2018-05-13T06:50:21.997Z,427.50
2018-05-13T06:51:22.199Z,421.88
2018-05-13T06:52:22.348Z,438.75
2018-05-13T06:53:22.499Z,444.38
2018-05-13T06:54:23.364Z,450.00
2018-05-13T06:55:22.811Z,450.00
2018-05-13T06:56:22.928Z,455.63
2018-05-13T06:57:23.159Z,455.63
2018-05-13T06:58:23.259Z,455.63
2018-05-13T06:59:23.425Z,461.25
2018-05-13T07:00:23.616Z,455.63
2018-05-13T07:01:23.857Z,444.38
2018-05-13T07:02:23.950Z,438.75
2018-05-13T07:03:24.068Z,427.50
2018-05-13T07:04:24.312Z,410.63
2018-05-13T07:05:25.377Z,399.38
2018-05-13T07:06:24.618Z,399.38
2018-05-13T07:08:57.901Z,376.88
2018-05-13T07:11:30.056Z,427.50
2018-05-13T07:12:29.223Z,438.75
2018-05-13T07:13:29.401Z,461.25
2018-05-13T07:14:29.548Z,466.88
2018-05-13T07:15:29.793Z,478.13
2018-05-13T07:16:44.585Z,472.50
2018-05-13T07:17:30.110Z,478.13
2018-05-13T07:18:30.356Z,478.13
2018-05-13T07:19:30.467Z,472.50
2018-05-13T07:20:31.568Z,472.50
2018-05-13T07:21:30.889Z,472.50
2018-05-13T07:22:31.034Z,478.13
2018-05-13T07:23:31.176Z,483.75
2018-05-13T07:24:32.069Z,489.38
2018-05-13T07:25:31.555Z,495.00
2018-05-13T07:26:31.708Z,489.38
2018-05-13T07:27:32.636Z,489.38
2018-05-13T07:28:31.992Z,489.38
2018-05-13T07:29:32.219Z,500.63
2018-05-13T07:30:32.372Z,489.38
2018-05-13T07:31:33.074Z,495.00
2018-05-13T07:32:32.671Z,500.63
2018-05-13T07:33:32.785Z,500.63
2018-05-13T07:34:32.985Z,500.63
2018-05-13T07:35:34.114Z,500.63
2018-05-13T07:36:33.400Z,506.25
2018-05-13T07:37:33.557Z,506.25
2018-05-13T07:38:33.686Z,511.88
2018-05-13T07:39:33.851Z,511.88
2018-05-13T07:40:34.003Z,511.88
2018-05-13T07:41:34.226Z,511.88
2018-05-13T07:42:34.428Z,511.88
2018-05-13T07:43:34.598Z,511.88
2018-05-13T07:44:34.748Z,517.50
2018-05-13T07:45:34.924Z,523.13
2018-05-13T07:46:35.024Z,528.75
2018-05-13T07:47:35.271Z,534.38
2018-05-13T07:48:35.360Z,540.00
2018-05-13T07:49:35.637Z,545.63
2018-05-13T07:50:35.781Z,551.25
2018-05-13T07:51:35.940Z,551.25
2018-05-13T07:52:36.638Z,556.88
2018-05-13T07:53:36.560Z,568.13
2018-05-13T07:54:36.464Z,506.25
2018-05-13T07:55:36.589Z,511.88
2018-05-13T07:56:36.791Z,562.50
2018-05-13T07:57:36.969Z,579.38
2018-05-13T07:58:37.134Z,585.00
2018-05-13T07:59:37.304Z,585.00
2018-05-13T08:00:37.465Z,590.63
2018-05-13T08:01:37.645Z,596.25
2018-05-13T08:02:37.823Z,607.50
2018-05-13T08:03:37.970Z,630.00
2018-05-13T08:04:38.181Z,652.50
2018-05-13T08:05:38.347Z,669.38
2018-05-13T08:06:38.480Z,680.63
2018-05-13T08:07:38.633Z,697.50
2018-05-13T08:15:31.900Z,883.13
2018-05-13T08:15:57.054Z,900.00
2018-05-13T08:16:57.223Z,933.75
2018-05-13T08:17:57.356Z,950.63
2018-05-13T08:18:57.553Z,984.38
2018-05-13T08:19:57.732Z,1012.50
2018-05-13T08:20:57.872Z,1040.63
2018-05-13T08:21:58.919Z,1063.13
2018-05-13T08:22:58.224Z,1080.00
2018-05-13T08:23:58.349Z,1091.25
2018-05-13T08:24:59.425Z,1113.75
2018-05-13T08:25:58.667Z,1147.50
2018-05-13T08:26:58.846Z,1164.38
2018-05-13T08:27:59.034Z,1186.88
2018-05-13T08:28:59.175Z,1203.75
2018-05-13T08:29:59.462Z,1226.25
2018-05-13T08:30:59.535Z,1260.00
2018-05-13T08:31:59.710Z,1276.88
2018-05-13T08:32:59.885Z,1288.13
2018-05-13T08:34:00.017Z,1310.63
2018-05-13T08:35:00.199Z,1310.63
2018-05-13T08:36:00.341Z,1316.25
2018-05-13T08:37:00.554Z,1338.75
2018-05-13T08:38:00.688Z,1209.38
2018-05-13T08:39:00.877Z,990.00
2018-05-13T08:40:01.025Z,916.88
2018-05-13T08:41:01.195Z,905.63
2018-05-13T08:42:01.414Z,877.50
2018-05-13T08:43:01.543Z,860.63
2018-05-13T08:44:01.744Z,832.50
2018-05-13T08:45:01.924Z,804.38
2018-05-13T08:46:02.087Z,787.50
2018-05-13T08:47:02.188Z,770.63
2018-05-13T08:48:02.364Z,759.38
2018-05-13T08:49:02.575Z,770.63
2018-05-13T08:50:02.767Z,770.63
2018-05-13T08:51:02.914Z,770.63
2018-05-13T08:52:03.058Z,776.25
2018-05-13T08:53:03.925Z,776.25
2018-05-13T08:54:03.577Z,781.88
2018-05-13T08:55:03.617Z,781.88
2018-05-13T08:56:03.777Z,793.13
2018-05-13T08:57:03.953Z,793.13
2018-05-13T08:58:04.101Z,798.75
2018-05-13T08:59:04.298Z,804.38
2018-05-13T09:00:04.504Z,815.63
2018-05-13T09:01:04.647Z,821.25
2018-05-13T09:02:04.822Z,838.13
2018-05-13T09:03:04.940Z,838.13
2018-05-13T09:04:05.094Z,855.00
2018-05-13T09:05:05.287Z,860.63
2018-05-13T09:06:05.449Z,866.25
2018-05-13T09:07:05.624Z,883.13
2018-05-13T09:08:05.773Z,894.38
2018-05-13T09:09:05.958Z,888.75
2018-05-13T09:10:06.895Z,888.75
2018-05-13T09:11:06.923Z,894.38
2018-05-13T09:12:06.562Z,911.25
2018-05-13T09:13:06.740Z,922.50
2018-05-13T09:14:06.971Z,939.38
2018-05-13T09:15:07.114Z,950.63
2018-05-13T09:16:07.271Z,961.88
2018-05-13T09:17:07.451Z,973.13
2018-05-13T09:18:07.626Z,961.88
2018-05-13T09:19:07.776Z,978.75
2018-05-13T09:20:07.939Z,978.75
2018-05-13T09:21:08.103Z,973.13
2018-05-13T09:22:08.251Z,1018.13
2018-05-13T09:23:08.416Z,1113.75
2018-05-13T09:24:08.567Z,1158.75
2018-05-13T09:25:08.742Z,1141.88
2018-05-13T09:26:08.948Z,1108.13
2018-05-13T09:27:09.104Z,1108.13
2018-05-13T09:28:09.218Z,978.75
2018-05-13T09:29:09.416Z,1046.25
2018-05-13T09:30:09.576Z,1451.25
2018-05-13T09:31:09.766Z,1710.00
2018-05-13T09:32:09.930Z,1743.75
2018-05-13T09:33:10.244Z,1991.25
2018-05-13T09:34:10.314Z,2086.88
2018-05-13T09:35:10.466Z,2165.63
2018-05-13T09:36:10.663Z,2143.13
2018-05-13T09:37:10.818Z,2272.50
2018-05-13T09:38:10.971Z,2317.50
2018-05-13T09:39:11.129Z,2328.75
2018-05-13T09:40:11.307Z,2340.00
2018-05-13T09:41:11.492Z,2351.25
2018-05-13T09:42:12.414Z,2272.50
2018-05-13T09:43:11.838Z,2362.50
2018-05-13T09:44:11.997Z,2508.75
2018-05-13T09:45:12.197Z,2553.75
2018-05-13T09:46:12.310Z,2548.13
2018-05-13T09:47:12.575Z,2413.13
2018-05-13T09:48:12.639Z,2598.75
2018-05-13T09:49:12.836Z,2475.00
2018-05-13T09:50:13.015Z,2306.25
2018-05-13T09:51:13.186Z,2576.25
2018-05-13T09:52:13.365Z,2632.50
2018-05-13T09:53:13.491Z,2632.50
2018-05-13T09:54:13.691Z,2520.00
2018-05-13T09:55:13.845Z,1080.00
2018-05-13T09:56:14.013Z,1096.88
2018-05-13T09:57:14.203Z,1136.25
2018-05-13T09:58:14.320Z,1366.88
2018-05-13T09:59:15.467Z,1620.00
2018-05-13T10:00:14.708Z,1355.63
2018-05-13T10:01:14.904Z,1462.50
2018-05-13T10:02:15.090Z,2368.13
2018-05-13T10:03:15.969Z,2306.25
2018-05-13T10:04:15.348Z,1575.00
2018-05-13T10:05:15.568Z,2581.88
2018-05-13T10:06:15.704Z,2683.13
2018-05-13T10:07:15.934Z,2683.13
2018-05-13T10:08:16.942Z,2053.13
2018-05-13T10:09:16.250Z,877.50
2018-05-13T10:10:16.417Z,860.63
2018-05-13T10:11:16.550Z,900.00
2018-05-13T10:12:16.726Z,1181.25
2018-05-13T10:13:16.872Z,1845.00
2018-05-13T10:14:17.070Z,2058.75
2018-05-13T10:15:17.249Z,2480.63
2018-05-13T10:16:17.425Z,2401.88
2018-05-13T10:17:17.566Z,3110.63
2018-05-13T10:18:17.759Z,2947.50
2018-05-13T10:19:18.029Z,2818.13
2018-05-13T10:20:18.153Z,1963.13
2018-05-13T10:21:18.289Z,1833.75
2018-05-13T10:22:18.468Z,1665.00
2018-05-13T10:23:18.656Z,1710.00
2018-05-13T10:24:18.883Z,1265.63
2018-05-13T10:25:18.999Z,1147.50
2018-05-13T10:26:19.182Z,1130.63
2018-05-13T10:27:19.425Z,2936.25
2018-05-13T10:28:19.537Z,2840.63
2018-05-13T10:29:19.677Z,1164.38
2018-05-13T10:30:19.895Z,871.88
2018-05-13T10:31:20.029Z,900.00
2018-05-13T10:32:20.223Z,1023.75
2018-05-13T10:33:20.422Z,1575.00
2018-05-13T10:34:20.589Z,2115.00
2018-05-13T10:35:20.754Z,1569.38
2018-05-13T10:36:20.957Z,2536.88
2018-05-13T10:37:21.102Z,2131.88
2018-05-13T10:38:21.274Z,1710.00
2018-05-13T10:39:21.442Z,1445.63
2018-05-13T10:40:21.623Z,1479.38
2018-05-13T10:41:21.786Z,871.88
2018-05-13T10:42:21.965Z,776.25
2018-05-13T10:43:22.112Z,1029.38
2018-05-13T10:44:22.281Z,1006.88
2018-05-13T10:45:22.398Z,1434.38
2018-05-13T10:46:22.600Z,3391.88
2018-05-13T10:47:23.465Z,3510.00
2018-05-13T10:48:23.003Z,3189.38
2018-05-13T10:49:23.163Z,3453.75
2018-05-13T10:50:23.396Z,3493.13
2018-05-13T10:51:23.512Z,1147.50
2018-05-13T10:52:23.659Z,3133.13
2018-05-13T10:53:23.910Z,978.75
2018-05-13T10:54:24.033Z,821.25
2018-05-13T10:55:24.211Z,731.25
2018-05-13T10:56:24.410Z,697.50
2018-05-13T10:57:24.524Z,759.38
2018-05-13T10:58:25.462Z,787.50
2018-05-13T10:59:24.915Z,781.88
2018-05-13T11:00:25.054Z,697.50
2018-05-13T11:01:25.192Z,618.75
2018-05-13T11:02:25.387Z,556.88
2018-05-13T11:03:25.520Z,511.88
2018-05-13T11:04:25.746Z,466.88
2018-05-13T11:05:25.857Z,444.38
2018-05-13T11:06:26.051Z,421.88
2018-05-13T11:07:26.230Z,399.38
2018-05-13T11:08:26.429Z,388.13
2018-05-13T11:09:26.582Z,410.63
2018-05-13T11:10:26.746Z,455.63
2018-05-13T11:11:26.900Z,495.00
2018-05-13T11:12:27.118Z,556.88
2018-05-13T11:13:27.262Z,630.00
2018-05-13T11:14:27.427Z,731.25
2018-05-13T11:15:27.594Z,1040.63
2018-05-13T11:16:27.735Z,1648.13
2018-05-13T11:17:27.936Z,1400.63
2018-05-13T11:18:28.123Z,1440.00
2018-05-13T11:19:28.265Z,1788.75
2018-05-13T11:20:28.506Z,2548.13
2018-05-13T11:21:28.708Z,2688.75
2018-05-13T11:22:28.796Z,2655.00
2018-05-13T11:23:28.995Z,3116.25
2018-05-13T11:24:29.145Z,3723.75
2018-05-13T11:25:29.306Z,2064.38
2018-05-13T11:26:30.433Z,3886.88
2018-05-13T11:27:29.623Z,3971.25
2018-05-13T11:28:29.817Z,4021.88
2018-05-13T11:29:29.968Z,4044.38
2018-05-13T11:30:30.146Z,4055.63
2018-05-13T11:31:30.308Z,4005.00
2018-05-13T11:32:30.507Z,3189.38
2018-05-13T11:33:30.619Z,2019.38
2018-05-13T11:34:30.807Z,2576.25
2018-05-13T11:35:30.961Z,2323.13
2018-05-13T11:36:31.181Z,1811.25
2018-05-13T11:37:31.309Z,1777.50
2018-05-13T11:38:31.530Z,1828.13
2018-05-13T11:39:31.697Z,1389.38
2018-05-13T11:40:31.860Z,1153.13
2018-05-13T11:41:31.986Z,973.13
2018-05-13T11:42:32.172Z,742.50
2018-05-13T11:43:32.386Z,686.25
2018-05-13T11:44:32.481Z,658.13
2018-05-13T11:45:33.542Z,607.50
2018-05-13T11:46:32.898Z,556.88
2018-05-13T11:47:33.031Z,517.50
2018-05-13T11:48:33.186Z,483.75
2018-05-13T11:49:33.351Z,461.25
2018-05-13T11:50:33.563Z,450.00
2018-05-13T11:51:33.697Z,444.38
2018-05-13T11:52:34.422Z,483.75
2018-05-13T11:53:34.197Z,556.88
2018-05-13T11:54:34.295Z,759.38
2018-05-13T11:55:34.946Z,1006.88
2018-05-13T11:56:34.651Z,1856.25
2018-05-13T11:57:34.832Z,3155.63
2018-05-13T11:58:34.992Z,3031.88
2018-05-13T11:59:35.152Z,2171.25
2018-05-13T12:00:35.277Z,1586.25
2018-05-13T12:01:35.478Z,1698.75
2018-05-13T12:02:35.654Z,1389.38
2018-05-13T12:03:35.862Z,1501.88
2018-05-13T12:04:36.983Z,3465.00
2018-05-13T12:05:36.159Z,3470.63
2018-05-13T12:06:36.377Z,3751.88
2018-05-13T12:07:36.475Z,3498.75
2018-05-13T12:08:36.658Z,3498.75
2018-05-13T12:09:36.812Z,2171.25
2018-05-13T12:10:36.973Z,1473.75
2018-05-13T12:11:37.217Z,1321.88
2018-05-13T12:12:37.301Z,1276.88
2018-05-13T12:13:37.465Z,1310.63
2018-05-13T12:14:37.647Z,1372.50
2018-05-13T12:15:37.841Z,1535.63
2018-05-13T12:16:38.001Z,1996.88
2018-05-13T12:17:38.232Z,2542.50
2018-05-13T12:18:38.960Z,3223.13
2018-05-13T12:19:38.477Z,3740.63
2018-05-13T12:20:38.675Z,3909.38
2018-05-13T12:21:38.817Z,2576.25
2018-05-13T12:22:39.015Z,2666.25
2018-05-13T12:23:39.222Z,2401.88
2018-05-13T12:24:39.987Z,1243.13
2018-05-13T12:25:39.534Z,883.13
2018-05-13T12:26:39.709Z,787.50
2018-05-13T12:27:39.844Z,742.50
2018-05-13T12:28:40.084Z,725.63
2018-05-13T12:29:40.186Z,720.00
2018-05-13T12:30:40.383Z,725.63
2018-05-13T12:31:40.533Z,753.75
2018-05-13T12:32:40.733Z,793.13
2018-05-13T12:33:40.946Z,843.75
2018-05-13T12:34:41.057Z,916.88
2018-05-13T12:35:41.257Z,1029.38
2018-05-13T12:36:41.435Z,1395.00
2018-05-13T12:37:41.574Z,2036.25
2018-05-13T12:38:42.476Z,3757.50
2018-05-13T12:39:41.861Z,3386.25
2018-05-13T12:40:42.043Z,2964.38
2018-05-13T12:41:42.258Z,1755.00
2018-05-13T12:42:42.428Z,1293.75
2018-05-13T12:43:42.528Z,1209.38
2018-05-13T12:44:42.734Z,1378.13
2018-05-13T12:45:42.903Z,1265.63
2018-05-13T12:46:43.106Z,1186.88
2018-05-13T12:47:43.257Z,1265.63
2018-05-13T12:48:43.430Z,1051.88
2018-05-13T12:49:43.576Z,922.50
2018-05-13T12:50:43.834Z,860.63
2018-05-13T12:51:43.918Z,804.38
2018-05-13T12:52:44.133Z,776.25
2018-05-13T12:53:44.326Z,753.75
2018-05-13T12:54:44.463Z,748.13
2018-05-13T12:55:44.632Z,748.13
2018-05-13T12:56:44.857Z,759.38
2018-05-13T12:57:44.968Z,787.50
2018-05-13T12:58:45.127Z,821.25
2018-05-13T12:59:45.278Z,877.50
2018-05-13T13:00:46.475Z,995.63
2018-05-13T13:01:45.669Z,984.38
2018-05-13T13:02:45.840Z,866.25
2018-05-13T13:03:46.041Z,765.00
2018-05-13T13:04:46.155Z,703.13
2018-05-13T13:05:46.371Z,641.25
2018-05-13T13:06:46.463Z,618.75
2018-05-13T13:07:46.793Z,607.50
2018-05-13T13:08:46.878Z,613.13
2018-05-13T13:09:47.950Z,630.00
2018-05-13T13:10:47.137Z,669.38
2018-05-13T13:11:47.356Z,714.38
2018-05-13T13:12:47.551Z,776.25
2018-05-13T13:13:47.659Z,838.13
2018-05-13T13:14:47.804Z,911.25
2018-05-13T13:15:47.995Z,973.13
2018-05-13T13:16:48.227Z,1057.50
2018-05-13T13:17:48.306Z,1170.00
2018-05-13T13:18:48.502Z,1338.75
2018-05-13T13:19:48.679Z,2041.88
2018-05-13T13:20:48.831Z,3751.88
2018-05-13T13:21:49.011Z,3690.00
2018-05-13T13:22:49.173Z,3453.75
2018-05-13T13:23:49.325Z,3560.63
2018-05-13T13:24:49.512Z,2295.00
2018-05-13T13:25:49.686Z,1310.63
2018-05-13T13:26:49.835Z,1164.38
2018-05-13T13:27:50.025Z,1018.13
2018-05-13T13:28:50.158Z,1254.38
2018-05-13T13:29:50.355Z,883.13
2018-05-13T13:30:50.544Z,804.38
2018-05-13T13:31:50.741Z,736.88
2018-05-13T13:32:50.853Z,686.25
2018-05-13T13:33:51.030Z,641.25
2018-05-13T13:34:51.164Z,607.50
2018-05-13T13:35:51.362Z,579.38
2018-05-13T13:36:51.509Z,556.88
2018-05-13T13:37:51.719Z,528.75
2018-05-13T13:38:51.901Z,511.88
2018-05-13T13:39:52.956Z,483.75
2018-05-13T13:40:52.201Z,461.25
2018-05-13T13:41:52.385Z,444.38
2018-05-13T13:42:52.547Z,421.88
2018-05-13T13:43:52.667Z,393.75
2018-05-13T13:44:52.836Z,371.25
2018-05-13T13:45:52.984Z,360.00
2018-05-13T13:46:53.165Z,348.75
2018-05-13T13:47:53.368Z,337.50
2018-05-13T13:48:53.479Z,337.50
2018-05-13T13:49:53.705Z,326.25
2018-05-13T13:50:53.855Z,326.25
2018-05-13T13:51:54.018Z,326.25
2018-05-13T13:52:54.215Z,331.88
2018-05-13T13:53:54.377Z,337.50
2018-05-13T13:54:54.509Z,343.13
2018-05-13T13:55:54.691Z,348.75
2018-05-13T13:56:54.865Z,354.38
2018-05-13T13:57:55.049Z,360.00
2018-05-13T13:58:55.213Z,365.63
2018-05-13T13:59:55.328Z,371.25
2018-05-13T14:00:55.542Z,371.25
2018-05-13T14:01:55.749Z,376.88
2018-05-13T14:02:55.916Z,382.50
2018-05-13T14:03:56.181Z,388.13
2018-05-13T14:04:56.258Z,393.75
2018-05-13T14:05:56.468Z,399.38
2018-05-13T14:06:56.635Z,410.63
2018-05-13T14:07:56.798Z,421.88
2018-05-13T14:08:56.959Z,427.50
2018-05-13T14:09:57.163Z,444.38
2018-05-13T14:10:57.245Z,461.25
2018-05-13T14:11:57.469Z,461.25
2018-05-13T14:12:57.640Z,466.88
2018-05-13T14:13:57.806Z,466.88
2018-05-13T14:14:57.931Z,466.88
2018-05-13T14:15:58.135Z,455.63
2018-05-13T14:16:58.343Z,444.38
2018-05-13T14:17:58.466Z,433.13
2018-05-13T14:18:58.637Z,421.88
2018-05-13T14:19:58.814Z,410.63
2018-05-13T14:20:59.026Z,393.75
2018-05-13T14:21:59.150Z,382.50
2018-05-13T14:22:59.291Z,376.88
2018-05-13T14:23:59.505Z,376.88
2018-05-13T14:24:59.637Z,371.25
2018-05-13T14:25:59.840Z,371.25
2018-05-13T14:27:00.011Z,371.25
2018-05-13T14:28:00.221Z,360.00
2018-05-13T14:29:00.462Z,354.38
2018-05-13T14:30:00.617Z,343.13
2018-05-13T14:31:00.738Z,331.88
2018-05-13T14:32:00.883Z,326.25
2018-05-13T14:33:01.119Z,320.63
2018-05-13T14:34:01.197Z,320.63
2018-05-13T14:35:01.343Z,326.25
2018-05-13T14:36:01.601Z,331.88
2018-05-13T14:37:01.750Z,348.75
2018-05-13T14:38:01.985Z,365.63
2018-05-13T14:39:11.821Z,388.13
2018-05-13T14:40:02.280Z,405.00
2018-05-13T14:41:02.390Z,427.50
2018-05-13T14:42:02.582Z,444.38
2018-05-13T14:43:02.761Z,472.50
2018-05-13T14:44:02.887Z,495.00
2018-05-13T14:45:03.031Z,517.50
2018-05-13T14:46:03.246Z,534.38
2018-05-13T14:47:03.419Z,556.88
2018-05-13T14:48:03.577Z,579.38
2018-05-13T14:49:03.757Z,607.50
2018-05-13T14:50:03.859Z,635.63
2018-05-13T14:51:04.102Z,658.13
2018-05-13T14:52:04.214Z,697.50
2018-05-13T14:53:04.380Z,748.13
2018-05-13T14:54:04.552Z,826.88
2018-05-13T14:55:04.673Z,1108.13
2018-05-13T14:56:04.886Z,1220.63
2018-05-13T14:57:05.051Z,1327.50
2018-05-13T14:58:05.244Z,1473.75
2018-05-13T14:59:05.337Z,1603.13
2018-05-13T15:00:05.500Z,1636.88
2018-05-13T15:01:05.668Z,1012.50
2018-05-13T15:02:05.865Z,1001.25
2018-05-13T15:03:05.981Z,1091.25
2018-05-13T15:04:06.180Z,1215.00
2018-05-13T15:05:06.363Z,1395.00
2018-05-13T15:06:06.567Z,1704.38
2018-05-13T15:07:06.624Z,2233.13
2018-05-13T15:08:06.875Z,2508.75
2018-05-13T15:09:07.484Z,2688.75
2018-05-13T15:10:08.005Z,2846.25
2018-05-13T15:11:07.330Z,2458.13
2018-05-13T15:12:08.028Z,1406.25
2018-05-13T15:13:07.695Z,2604.38
2018-05-13T15:14:07.804Z,2745.00
2018-05-13T15:15:08.000Z,2683.13
2018-05-13T15:16:08.190Z,2626.88
2018-05-13T15:17:08.365Z,2441.25
2018-05-13T15:18:08.489Z,2542.50
2018-05-13T15:19:08.682Z,2655.00
2018-05-13T15:20:08.856Z,2649.38
2018-05-13T15:21:09.021Z,2700.00
2018-05-13T15:22:09.216Z,2733.75
2018-05-13T15:23:09.383Z,2835.00
2018-05-13T15:24:09.570Z,2790.00
2018-05-13T15:25:09.733Z,2829.38
2018-05-13T15:26:10.534Z,2638.13
2018-05-13T15:27:10.032Z,2621.25
2018-05-13T15:28:10.300Z,2773.13
2018-05-13T15:29:10.432Z,2671.88
2018-05-13T15:30:10.561Z,2176.88
2018-05-13T15:31:10.747Z,2131.88
2018-05-13T15:32:10.930Z,2525.63
2018-05-13T15:33:11.077Z,2120.63
2018-05-13T15:34:11.210Z,1164.38
2018-05-13T15:35:11.420Z,1203.75
2018-05-13T15:36:11.576Z,2019.38
2018-05-13T15:37:11.767Z,804.38
2018-05-13T15:38:11.926Z,1035.00
2018-05-13T15:39:12.079Z,1355.63
2018-05-13T15:40:12.222Z,1659.38
2018-05-13T15:41:12.446Z,821.25
2018-05-13T15:42:12.582Z,731.25
2018-05-13T15:43:12.784Z,556.88
2018-05-13T15:44:12.936Z,489.38
2018-05-13T15:45:13.096Z,483.75
2018-05-13T15:46:13.307Z,455.63
2018-05-13T15:47:13.512Z,376.88